sensor_id;sensor_type;location;lat;lon;timestamp;temperature;humidity
9847;DHT22;4962;50.084;8.794;2022-09-09T00:01:49;20.00;99.90
9847;DHT22;4962;50.084;8.794;2022-09-09T00:04:25;20.00;99.90
9847;DHT22;4962;50.084;8.794;2022-09-09T00:07:01;19.90;99.90
9847;DHT22;4962;50.084;8.794;2022-09-09T00:09:33;19.90;99.90
9847;DHT22;4962;50.084;8.794;2022-09-09T00:12:10;19.90;99.90
9847;DHT22;4962;50.084;8.794;2022-09-09T00:14:43;19.80;99.90
9847;DHT22;4962;50.084;8.794;2022-09-09T00:17:16;19.90;99.90
9847;DHT22;4962;50.084;8.794;2022-09-09T00:19:50;19.90;99.90
9847;DHT22;4962;50.084;8.794;2022-09-09T00:22:23;19.90;99.90
9847;DHT22;4962;50.084;8.794;2022-09-09T00:24:52;19.90;99.90
9847;DHT22;4962;50.084;8.794;2022-09-09T00:27:25;19.90;99.90
9847;DHT22;4962;50.084;8.794;2022-09-09T00:29:57;20.00;99.90
9847;DHT22;4962;50.084;8.794;2022-09-09T00:32:29;20.00;99.90
9847;DHT22;4962;50.084;8.794;2022-09-09T00:35:01;20.00;99.90
9847;DHT22;4962;50.084;8.794;2022-09-09T00:37:30;19.90;99.90
9847;DHT22;4962;50.084;8.794;2022-09-09T00:40:00;19.90;99.90
9847;DHT22;4962;50.084;8.794;2022-09-09T00:42:37;19.90;99.90
9847;DHT22;4962;50.084;8.794;2022-09-09T00:45:15;19.90;99.90
9847;DHT22;4962;50.084;8.794;2022-09-09T00:47:46;19.90;99.90
9847;DHT22;4962;50.084;8.794;2022-09-09T00:50:32;19.90;99.90
9847;DHT22;4962;50.084;8.794;2022-09-09T00:53:12;19.90;99.90
9847;DHT22;4962;50.084;8.794;2022-09-09T00:55:46;19.90;99.90
9847;DHT22;4962;50.084;8.794;2022-09-09T00:58:15;19.90;99.90
9847;DHT22;4962;50.084;8.794;2022-09-09T01:00:44;19.90;99.90
9847;DHT22;4962;50.084;8.794;2022-09-09T01:03:22;19.90;99.90
9847;DHT22;4962;50.084;8.794;2022-09-09T01:06:00;20.00;99.90
9847;DHT22;4962;50.084;8.794;2022-09-09T01:08:40;20.00;99.90
9847;DHT22;4962;50.084;8.794;2022-09-09T01:11:14;20.10;99.90
9847;DHT22;4962;50.084;8.794;2022-09-09T01:13:45;20.10;99.90
9847;DHT22;4962;50.084;8.794;2022-09-09T01:16:14;20.10;99.90
9847;DHT22;4962;50.084;8.794;2022-09-09T01:18:44;20.10;99.90
9847;DHT22;4962;50.084;8.794;2022-09-09T01:21:18;20.10;99.90
9847;DHT22;4962;50.084;8.794;2022-09-09T01:24:05;20.00;99.90
9847;DHT22;4962;50.084;8.794;2022-09-09T01:26:38;19.90;99.90
9847;DHT22;4962;50.084;8.794;2022-09-09T01:29:08;19.90;99.90
9847;DHT22;4962;50.084;8.794;2022-09-09T01:31:37;19.80;99.90
9847;DHT22;4962;50.084;8.794;2022-09-09T01:34:10;19.70;99.90
9847;DHT22;4962;50.084;8.794;2022-09-09T01:36:40;19.70;99.90
9847;DHT22;4962;50.084;8.794;2022-09-09T01:39:07;19.60;99.90
9847;DHT22;4962;50.084;8.794;2022-09-09T01:41:36;19.70;99.90
9847;DHT22;4962;50.084;8.794;2022-09-09T01:44:03;19.60;99.90
9847;DHT22;4962;50.084;8.794;2022-09-09T01:46:30;19.60;99.90
9847;DHT22;4962;50.084;8.794;2022-09-09T01:48:58;19.60;99.90
9847;DHT22;4962;50.084;8.794;2022-09-09T01:51:25;19.60;99.90
9847;DHT22;4962;50.084;8.794;2022-09-09T01:53:52;19.60;99.90
9847;DHT22;4962;50.084;8.794;2022-09-09T01:56:29;19.60;99.90
9847;DHT22;4962;50.084;8.794;2022-09-09T01:59:09;19.60;99.90
9847;DHT22;4962;50.084;8.794;2022-09-09T02:01:49;19.60;99.90
9847;DHT22;4962;50.084;8.794;2022-09-09T02:04:29;19.60;99.90
9847;DHT22;4962;50.084;8.794;2022-09-09T02:07:00;19.60;99.90
9847;DHT22;4962;50.084;8.794;2022-09-09T02:09:29;19.60;99.90
9847;DHT22;4962;50.084;8.794;2022-09-09T02:12:01;19.60;99.90
9847;DHT22;4962;50.084;8.794;2022-09-09T02:14:36;19.50;99.90
9847;DHT22;4962;50.084;8.794;2022-09-09T02:17:08;19.50;99.90
9847;DHT22;4962;50.084;8.794;2022-09-09T02:19:38;19.50;99.90
9847;DHT22;4962;50.084;8.794;2022-09-09T02:22:08;19.50;99.90
9847;DHT22;4962;50.084;8.794;2022-09-09T02:24:39;19.60;99.90
9847;DHT22;4962;50.084;8.794;2022-09-09T02:27:08;19.60;99.90
9847;DHT22;4962;50.084;8.794;2022-09-09T02:29:39;19.60;99.90
9847;DHT22;4962;50.084;8.794;2022-09-09T02:32:11;19.50;99.90
9847;DHT22;4962;50.084;8.794;2022-09-09T02:34:42;19.50;99.90
9847;DHT22;4962;50.084;8.794;2022-09-09T02:37:10;19.50;99.90
9847;DHT22;4962;50.084;8.794;2022-09-09T02:39:38;19.60;99.90
9847;DHT22;4962;50.084;8.794;2022-09-09T02:42:05;19.60;99.90
9847;DHT22;4962;50.084;8.794;2022-09-09T02:44:33;19.60;99.90
9847;DHT22;4962;50.084;8.794;2022-09-09T02:47:15;19.60;99.90
9847;DHT22;4962;50.084;8.794;2022-09-09T02:49:55;19.60;99.90
9847;DHT22;4962;50.084;8.794;2022-09-09T02:52:30;19.60;99.90
9847;DHT22;4962;50.084;8.794;2022-09-09T02:55:06;19.60;99.90
9847;DHT22;4962;50.084;8.794;2022-09-09T02:57:36;19.60;99.90
9847;DHT22;4962;50.084;8.794;2022-09-09T03:00:04;19.60;99.90
9847;DHT22;4962;50.084;8.794;2022-09-09T03:02:33;19.60;99.90
9847;DHT22;4962;50.084;8.794;2022-09-09T03:05:03;19.60;99.90
9847;DHT22;4962;50.084;8.794;2022-09-09T03:07:30;19.60;99.90
9847;DHT22;4962;50.084;8.794;2022-09-09T03:09:57;19.60;99.90
9847;DHT22;4962;50.084;8.794;2022-09-09T03:12:24;19.70;99.90
9847;DHT22;4962;50.084;8.794;2022-09-09T03:14:51;19.70;99.90
9847;DHT22;4962;50.084;8.794;2022-09-09T03:17:18;19.70;99.90
9847;DHT22;4962;50.084;8.794;2022-09-09T03:19:46;19.70;99.90
9847;DHT22;4962;50.084;8.794;2022-09-09T03:22:15;19.70;99.90
9847;DHT22;4962;50.084;8.794;2022-09-09T03:24:41;19.70;99.90
9847;DHT22;4962;50.084;8.794;2022-09-09T03:27:08;19.70;99.90
9847;DHT22;4962;50.084;8.794;2022-09-09T03:29:35;19.70;99.90
9847;DHT22;4962;50.084;8.794;2022-09-09T03:32:02;19.70;99.90
9847;DHT22;4962;50.084;8.794;2022-09-09T03:34:29;19.80;99.90
9847;DHT22;4962;50.084;8.794;2022-09-09T03:36:58;19.80;99.90
9847;DHT22;4962;50.084;8.794;2022-09-09T03:39:25;19.80;99.90
9847;DHT22;4962;50.084;8.794;2022-09-09T03:41:51;19.90;99.90
9847;DHT22;4962;50.084;8.794;2022-09-09T03:44:18;19.90;99.90
9847;DHT22;4962;50.084;8.794;2022-09-09T03:46:45;19.90;99.90
9847;DHT22;4962;50.084;8.794;2022-09-09T03:49:12;19.90;99.90
9847;DHT22;4962;50.084;8.794;2022-09-09T03:51:39;20.00;99.90
9847;DHT22;4962;50.084;8.794;2022-09-09T03:54:09;20.00;99.90
9847;DHT22;4962;50.084;8.794;2022-09-09T03:56:36;20.00;99.90
9847;DHT22;4962;50.084;8.794;2022-09-09T03:59:04;20.00;99.90
9847;DHT22;4962;50.084;8.794;2022-09-09T04:01:31;20.00;99.90
9847;DHT22;4962;50.084;8.794;2022-09-09T04:03:58;20.00;99.90
9847;DHT22;4962;50.084;8.794;2022-09-09T04:06:49;19.90;99.90
9847;DHT22;4962;50.084;8.794;2022-09-09T04:09:17;19.90;99.90
9847;DHT22;4962;50.084;8.794;2022-09-09T04:11:44;19.90;99.90
9847;DHT22;4962;50.084;8.794;2022-09-09T04:14:12;20.00;99.90
9847;DHT22;4962;50.084;8.794;2022-09-09T04:16:39;20.00;99.90
9847;DHT22;4962;50.084;8.794;2022-09-09T04:19:08;20.00;99.90
9847;DHT22;4962;50.084;8.794;2022-09-09T04:21:37;20.00;99.90
9847;DHT22;4962;50.084;8.794;2022-09-09T04:24:06;20.00;99.90
9847;DHT22;4962;50.084;8.794;2022-09-09T04:26:35;19.90;99.90
9847;DHT22;4962;50.084;8.794;2022-09-09T04:29:03;19.90;99.90
9847;DHT22;4962;50.084;8.794;2022-09-09T04:31:30;19.90;99.90
9847;DHT22;4962;50.084;8.794;2022-09-09T04:33:57;19.90;99.90
9847;DHT22;4962;50.084;8.794;2022-09-09T04:36:27;19.90;99.90
9847;DHT22;4962;50.084;8.794;2022-09-09T04:38:54;19.90;99.90
9847;DHT22;4962;50.084;8.794;2022-09-09T04:41:21;20.00;99.90
9847;DHT22;4962;50.084;8.794;2022-09-09T04:43:50;20.00;99.90
9847;DHT22;4962;50.084;8.794;2022-09-09T04:46:19;20.00;99.90
9847;DHT22;4962;50.084;8.794;2022-09-09T04:48:45;20.00;99.90
9847;DHT22;4962;50.084;8.794;2022-09-09T04:51:14;20.00;99.90
9847;DHT22;4962;50.084;8.794;2022-09-09T04:53:41;20.10;99.90
9847;DHT22;4962;50.084;8.794;2022-09-09T04:56:10;20.10;99.90
9847;DHT22;4962;50.084;8.794;2022-09-09T04:58:37;20.10;99.90
9847;DHT22;4962;50.084;8.794;2022-09-09T05:01:08;20.20;99.90
9847;DHT22;4962;50.084;8.794;2022-09-09T05:03:35;20.10;99.90
9847;DHT22;4962;50.084;8.794;2022-09-09T05:06:05;20.20;99.90
9847;DHT22;4962;50.084;8.794;2022-09-09T05:08:32;20.20;99.90
9847;DHT22;4962;50.084;8.794;2022-09-09T05:10:59;20.20;99.90
9847;DHT22;4962;50.084;8.794;2022-09-09T05:13:26;20.20;99.90
9847;DHT22;4962;50.084;8.794;2022-09-09T05:15:53;20.20;99.90
9847;DHT22;4962;50.084;8.794;2022-09-09T05:18:22;20.20;99.90
9847;DHT22;4962;50.084;8.794;2022-09-09T05:20:49;20.30;99.90
9847;DHT22;4962;50.084;8.794;2022-09-09T05:23:16;20.30;99.90
9847;DHT22;4962;50.084;8.794;2022-09-09T05:25:43;20.30;99.90
9847;DHT22;4962;50.084;8.794;2022-09-09T05:28:12;20.40;99.90
9847;DHT22;4962;50.084;8.794;2022-09-09T05:30:39;20.40;99.90
9847;DHT22;4962;50.084;8.794;2022-09-09T05:33:06;20.40;99.90
9847;DHT22;4962;50.084;8.794;2022-09-09T05:35:36;20.50;99.90
9847;DHT22;4962;50.084;8.794;2022-09-09T05:38:03;20.50;99.90
9847;DHT22;4962;50.084;8.794;2022-09-09T05:40:30;20.60;99.90
9847;DHT22;4962;50.084;8.794;2022-09-09T05:43:00;20.60;99.90
9847;DHT22;4962;50.084;8.794;2022-09-09T05:45:28;20.60;99.90
9847;DHT22;4962;50.084;8.794;2022-09-09T05:48:02;20.70;99.90
9847;DHT22;4962;50.084;8.794;2022-09-09T05:50:29;20.70;99.90
9847;DHT22;4962;50.084;8.794;2022-09-09T05:52:57;20.70;99.90
9847;DHT22;4962;50.084;8.794;2022-09-09T05:55:24;20.70;99.90
9847;DHT22;4962;50.084;8.794;2022-09-09T05:57:51;20.70;99.90
9847;DHT22;4962;50.084;8.794;2022-09-09T06:00:18;20.60;99.90
9847;DHT22;4962;50.084;8.794;2022-09-09T06:02:53;20.60;99.90
9847;DHT22;4962;50.084;8.794;2022-09-09T06:05:20;20.60;99.90
9847;DHT22;4962;50.084;8.794;2022-09-09T06:07:48;20.70;99.90
9847;DHT22;4962;50.084;8.794;2022-09-09T06:10:20;20.70;99.90
9847;DHT22;4962;50.084;8.794;2022-09-09T06:13:00;20.70;99.90
9847;DHT22;4962;50.084;8.794;2022-09-09T06:15:27;20.70;99.90
9847;DHT22;4962;50.084;8.794;2022-09-09T06:17:56;20.70;99.90
9847;DHT22;4962;50.084;8.794;2022-09-09T06:20:23;20.70;99.90
9847;DHT22;4962;50.084;8.794;2022-09-09T06:22:50;20.80;99.90
9847;DHT22;4962;50.084;8.794;2022-09-09T06:25:17;20.80;99.90
9847;DHT22;4962;50.084;8.794;2022-09-09T06:27:49;20.90;99.90
9847;DHT22;4962;50.084;8.794;2022-09-09T06:30:16;20.90;99.90
9847;DHT22;4962;50.084;8.794;2022-09-09T06:32:43;21.00;99.90
9847;DHT22;4962;50.084;8.794;2022-09-09T06:35:10;21.10;99.90
9847;DHT22;4962;50.084;8.794;2022-09-09T06:37:37;21.10;99.90
9847;DHT22;4962;50.084;8.794;2022-09-09T06:40:06;21.20;99.90
9847;DHT22;4962;50.084;8.794;2022-09-09T06:42:33;21.20;99.90
9847;DHT22;4962;50.084;8.794;2022-09-09T06:45:02;21.30;99.90
9847;DHT22;4962;50.084;8.794;2022-09-09T06:47:29;21.40;99.90
9847;DHT22;4962;50.084;8.794;2022-09-09T06:49:56;21.50;99.90
9847;DHT22;4962;50.084;8.794;2022-09-09T06:52:27;21.50;99.90
9847;DHT22;4962;50.084;8.794;2022-09-09T06:54:54;21.50;99.90
9847;DHT22;4962;50.084;8.794;2022-09-09T06:57:23;21.60;99.90
9847;DHT22;4962;50.084;8.794;2022-09-09T06:59:50;21.60;99.90
9847;DHT22;4962;50.084;8.794;2022-09-09T07:02:18;21.60;99.90
9847;DHT22;4962;50.084;8.794;2022-09-09T07:04:46;21.70;99.90
9847;DHT22;4962;50.084;8.794;2022-09-09T07:07:15;21.70;99.90
9847;DHT22;4962;50.084;8.794;2022-09-09T07:09:43;21.90;99.90
9847;DHT22;4962;50.084;8.794;2022-09-09T07:12:12;22.30;99.90
9847;DHT22;4962;50.084;8.794;2022-09-09T07:14:39;22.70;99.90
9847;DHT22;4962;50.084;8.794;2022-09-09T07:17:06;23.00;99.90
9847;DHT22;4962;50.084;8.794;2022-09-09T07:19:34;23.30;99.90
9847;DHT22;4962;50.084;8.794;2022-09-09T07:22:01;23.40;99.90
9847;DHT22;4962;50.084;8.794;2022-09-09T07:24:28;23.50;99.90
9847;DHT22;4962;50.084;8.794;2022-09-09T07:26:56;23.50;99.90
9847;DHT22;4962;50.084;8.794;2022-09-09T07:29:22;23.50;99.90
9847;DHT22;4962;50.084;8.794;2022-09-09T07:31:49;23.50;99.90
9847;DHT22;4962;50.084;8.794;2022-09-09T07:34:16;23.60;99.90
9847;DHT22;4962;50.084;8.794;2022-09-09T07:36:45;23.90;99.90
9847;DHT22;4962;50.084;8.794;2022-09-09T07:39:13;24.40;99.90
9847;DHT22;4962;50.084;8.794;2022-09-09T07:41:42;25.00;99.90
9847;DHT22;4962;50.084;8.794;2022-09-09T07:44:11;25.60;99.90
9847;DHT22;4962;50.084;8.794;2022-09-09T07:46:39;26.30;99.90
9847;DHT22;4962;50.084;8.794;2022-09-09T07:49:07;27.00;99.90
9847;DHT22;4962;50.084;8.794;2022-09-09T07:51:36;27.50;99.90
9847;DHT22;4962;50.084;8.794;2022-09-09T07:54:07;28.00;99.90
9847;DHT22;4962;50.084;8.794;2022-09-09T07:56:36;28.40;99.70
9847;DHT22;4962;50.084;8.794;2022-09-09T07:59:04;28.60;97.60
9847;DHT22;4962;50.084;8.794;2022-09-09T08:01:33;28.60;95.50
9847;DHT22;4962;50.084;8.794;2022-09-09T08:04:04;28.50;94.40
9847;DHT22;4962;50.084;8.794;2022-09-09T08:06:36;28.20;93.80
9847;DHT22;4962;50.084;8.794;2022-09-09T08:09:05;27.90;93.40
9847;DHT22;4962;50.084;8.794;2022-09-09T08:11:33;27.70;93.30
9847;DHT22;4962;50.084;8.794;2022-09-09T08:14:01;27.40;93.20
9847;DHT22;4962;50.084;8.794;2022-09-09T08:16:30;27.20;93.40
9847;DHT22;4962;50.084;8.794;2022-09-09T08:18:58;27.00;93.70
9847;DHT22;4962;50.084;8.794;2022-09-09T08:21:27;26.80;93.90
9847;DHT22;4962;50.084;8.794;2022-09-09T08:23:55;26.60;94.00
9847;DHT22;4962;50.084;8.794;2022-09-09T08:26:25;26.50;94.00
9847;DHT22;4962;50.084;8.794;2022-09-09T08:28:56;26.40;94.00
9847;DHT22;4962;50.084;8.794;2022-09-09T08:31:25;26.20;94.00
9847;DHT22;4962;50.084;8.794;2022-09-09T08:33:54;26.10;94.20
9847;DHT22;4962;50.084;8.794;2022-09-09T08:36:23;26.00;94.60
9847;DHT22;4962;50.084;8.794;2022-09-09T08:38:52;25.90;94.70
9847;DHT22;4962;50.084;8.794;2022-09-09T08:41:35;25.90;94.50
9847;DHT22;4962;50.084;8.794;2022-09-09T08:44:07;25.80;94.50
9847;DHT22;4962;50.084;8.794;2022-09-09T08:46:42;25.60;94.50
9847;DHT22;4962;50.084;8.794;2022-09-09T08:52:01;25.30;94.90
9847;DHT22;4962;50.084;8.794;2022-09-09T08:54:33;25.20;94.90
9847;DHT22;4962;50.084;8.794;2022-09-09T08:57:04;25.20;94.90
9847;DHT22;4962;50.084;8.794;2022-09-09T08:59:35;25.10;94.80
9847;DHT22;4962;50.084;8.794;2022-09-09T09:02:07;25.00;94.60
9847;DHT22;4962;50.084;8.794;2022-09-09T09:04:49;24.90;94.50
9847;DHT22;4962;50.084;8.794;2022-09-09T09:07:31;24.80;94.60
9847;DHT22;4962;50.084;8.794;2022-09-09T09:10:04;24.80;94.50
9847;DHT22;4962;50.084;8.794;2022-09-09T09:12:41;24.70;94.40
9847;DHT22;4962;50.084;8.794;2022-09-09T09:15:14;24.60;94.30
9847;DHT22;4962;50.084;8.794;2022-09-09T09:17:43;24.60;94.10
9847;DHT22;4962;50.084;8.794;2022-09-09T09:20:12;24.60;94.00
9847;DHT22;4962;50.084;8.794;2022-09-09T09:22:48;24.50;93.90
9847;DHT22;4962;50.084;8.794;2022-09-09T09:25:18;24.50;93.70
9847;DHT22;4962;50.084;8.794;2022-09-09T09:27:52;24.60;93.90
9847;DHT22;4962;50.084;8.794;2022-09-09T09:30:36;24.50;93.90
9847;DHT22;4962;50.084;8.794;2022-09-09T09:33:11;24.50;93.90
9847;DHT22;4962;50.084;8.794;2022-09-09T09:35:42;24.50;93.90
9847;DHT22;4962;50.084;8.794;2022-09-09T09:38:17;24.60;93.80
9847;DHT22;4962;50.084;8.794;2022-09-09T09:40:50;24.70;93.60
9847;DHT22;4962;50.084;8.794;2022-09-09T09:43:24;24.80;93.30
9847;DHT22;4962;50.084;8.794;2022-09-09T09:45:51;24.90;93.30
9847;DHT22;4962;50.084;8.794;2022-09-09T09:48:18;25.00;93.20
9847;DHT22;4962;50.084;8.794;2022-09-09T09:50:53;25.20;93.20
9847;DHT22;4962;50.084;8.794;2022-09-09T09:53:29;25.30;92.60
9847;DHT22;4962;50.084;8.794;2022-09-09T09:55:59;25.40;92.50
9847;DHT22;4962;50.084;8.794;2022-09-09T09:58:31;25.50;92.60
9847;DHT22;4962;50.084;8.794;2022-09-09T10:01:00;25.60;92.50
9847;DHT22;4962;50.084;8.794;2022-09-09T10:03:28;25.70;92.20
9847;DHT22;4962;50.084;8.794;2022-09-09T10:05:55;25.60;91.90
9847;DHT22;4962;50.084;8.794;2022-09-09T10:08:23;25.60;91.70
9847;DHT22;4962;50.084;8.794;2022-09-09T10:11:18;25.60;91.70
9847;DHT22;4962;50.084;8.794;2022-09-09T10:13:57;25.60;91.60
9847;DHT22;4962;50.084;8.794;2022-09-09T10:16:37;25.60;91.60
9847;DHT22;4962;50.084;8.794;2022-09-09T10:19:10;25.60;91.30
9847;DHT22;4962;50.084;8.794;2022-09-09T10:21:57;25.60;91.20
9847;DHT22;4962;50.084;8.794;2022-09-09T10:25:12;25.70;91.20
9847;DHT22;4962;50.084;8.794;2022-09-09T10:27:52;25.70;91.00
9847;DHT22;4962;50.084;8.794;2022-09-09T10:30:32;25.70;90.70
9847;DHT22;4962;50.084;8.794;2022-09-09T10:33:05;25.70;90.40
9847;DHT22;4962;50.084;8.794;2022-09-09T10:35:37;25.60;90.00
9847;DHT22;4962;50.084;8.794;2022-09-09T10:38:17;25.60;89.00
9847;DHT22;4962;50.084;8.794;2022-09-09T10:41:01;25.50;89.30
9847;DHT22;4962;50.084;8.794;2022-09-09T10:43:57;25.50;89.90
9847;DHT22;4962;50.084;8.794;2022-09-09T10:46:37;25.50;90.10
9847;DHT22;4962;50.084;8.794;2022-09-09T10:49:16;25.60;90.20
9847;DHT22;4962;50.084;8.794;2022-09-09T10:51:53;25.60;90.10
9847;DHT22;4962;50.084;8.794;2022-09-09T10:54:31;25.70;89.90
9847;DHT22;4962;50.084;8.794;2022-09-09T10:57:04;25.80;89.30
9847;DHT22;4962;50.084;8.794;2022-09-09T10:59:35;25.80;88.70
9847;DHT22;4962;50.084;8.794;2022-09-09T11:02:14;25.90;88.20
9847;DHT22;4962;50.084;8.794;2022-09-09T11:04:45;26.00;87.50
9847;DHT22;4962;50.084;8.794;2022-09-09T11:07:24;25.90;87.10
9847;DHT22;4962;50.084;8.794;2022-09-09T11:09:56;25.90;86.80
9847;DHT22;4962;50.084;8.794;2022-09-09T11:12:27;25.80;86.70
9847;DHT22;4962;50.084;8.794;2022-09-09T11:14:59;25.80;86.80
9847;DHT22;4962;50.084;8.794;2022-09-09T11:17:35;25.70;86.70
9847;DHT22;4962;50.084;8.794;2022-09-09T11:20:05;25.70;86.70
9847;DHT22;4962;50.084;8.794;2022-09-09T11:22:35;25.60;86.80
9847;DHT22;4962;50.084;8.794;2022-09-09T11:25:08;25.60;87.30
9847;DHT22;4962;50.084;8.794;2022-09-09T11:27:42;25.60;87.90
9847;DHT22;4962;50.084;8.794;2022-09-09T11:30:18;25.60;88.30
9847;DHT22;4962;50.084;8.794;2022-09-09T11:33:01;25.70;88.60
9847;DHT22;4962;50.084;8.794;2022-09-09T11:35:33;25.70;88.30
9847;DHT22;4962;50.084;8.794;2022-09-09T11:38:16;25.80;87.90
9847;DHT22;4962;50.084;8.794;2022-09-09T11:40:45;25.80;87.40
9847;DHT22;4962;50.084;8.794;2022-09-09T11:43:16;25.90;87.40
9847;DHT22;4962;50.084;8.794;2022-09-09T11:45:51;25.90;87.40
9847;DHT22;4962;50.084;8.794;2022-09-09T11:48:28;25.90;87.50
9847;DHT22;4962;50.084;8.794;2022-09-09T11:51:02;25.90;87.60
9847;DHT22;4962;50.084;8.794;2022-09-09T11:53:31;26.00;87.50
9847;DHT22;4962;50.084;8.794;2022-09-09T11:56:07;26.00;87.00
9847;DHT22;4962;50.084;8.794;2022-09-09T11:58:41;26.00;86.70
9847;DHT22;4962;50.084;8.794;2022-09-09T12:01:26;26.00;86.70
9847;DHT22;4962;50.084;8.794;2022-09-09T12:04:14;26.00;88.10
9847;DHT22;4962;50.084;8.794;2022-09-09T12:06:44;26.00;90.00
9847;DHT22;4962;50.084;8.794;2022-09-09T12:09:23;25.90;91.10
9847;DHT22;4962;50.084;8.794;2022-09-09T12:11:51;25.90;91.70
9847;DHT22;4962;50.084;8.794;2022-09-09T12:14:23;25.90;91.70
9847;DHT22;4962;50.084;8.794;2022-09-09T12:17:09;25.90;92.40
9847;DHT22;4962;50.084;8.794;2022-09-09T12:19:38;26.00;93.10
9847;DHT22;4962;50.084;8.794;2022-09-09T12:22:09;26.00;93.20
9847;DHT22;4962;50.084;8.794;2022-09-09T12:24:43;26.10;93.30
9847;DHT22;4962;50.084;8.794;2022-09-09T12:27:19;26.20;93.00
9847;DHT22;4962;50.084;8.794;2022-09-09T12:29:52;26.30;92.80
9847;DHT22;4962;50.084;8.794;2022-09-09T12:32:24;26.30;92.60
9847;DHT22;4962;50.084;8.794;2022-09-09T12:34:55;26.40;92.50
9847;DHT22;4962;50.084;8.794;2022-09-09T12:37:29;26.40;92.20
9847;DHT22;4962;50.084;8.794;2022-09-09T12:39:59;26.40;92.00
9847;DHT22;4962;50.084;8.794;2022-09-09T12:42:28;26.50;91.80
9847;DHT22;4962;50.084;8.794;2022-09-09T12:44:56;26.40;91.60
9847;DHT22;4962;50.084;8.794;2022-09-09T12:47:34;26.40;91.30
9847;DHT22;4962;50.084;8.794;2022-09-09T12:50:11;26.30;91.40
9847;DHT22;4962;50.084;8.794;2022-09-09T12:52:42;26.20;91.30
9847;DHT22;4962;50.084;8.794;2022-09-09T12:55:17;26.20;91.40
9847;DHT22;4962;50.084;8.794;2022-09-09T12:57:48;26.10;91.30
9847;DHT22;4962;50.084;8.794;2022-09-09T13:00:19;26.00;91.40
9847;DHT22;4962;50.084;8.794;2022-09-09T13:02:50;25.80;91.50
9847;DHT22;4962;50.084;8.794;2022-09-09T13:05:22;25.70;91.70
9847;DHT22;4962;50.084;8.794;2022-09-09T13:07:49;25.60;91.90
9847;DHT22;4962;50.084;8.794;2022-09-09T13:10:23;25.60;91.70
9847;DHT22;4962;50.084;8.794;2022-09-09T13:12:52;25.60;91.70
9847;DHT22;4962;50.084;8.794;2022-09-09T13:15:22;25.50;91.80
9847;DHT22;4962;50.084;8.794;2022-09-09T13:17:56;25.40;92.00
9847;DHT22;4962;50.084;8.794;2022-09-09T13:20:25;25.30;92.60
9847;DHT22;4962;50.084;8.794;2022-09-09T13:22:53;25.30;92.90
9847;DHT22;4962;50.084;8.794;2022-09-09T13:25:26;25.30;93.30
9847;DHT22;4962;50.084;8.794;2022-09-09T13:27:58;25.30;93.30
9847;DHT22;4962;50.084;8.794;2022-09-09T13:30:28;25.30;93.40
9847;DHT22;4962;50.084;8.794;2022-09-09T13:33:03;25.20;93.50
9847;DHT22;4962;50.084;8.794;2022-09-09T13:35:33;25.10;94.00
9847;DHT22;4962;50.084;8.794;2022-09-09T13:38:07;25.10;94.20
9847;DHT22;4962;50.084;8.794;2022-09-09T13:40:35;25.10;94.40
9847;DHT22;4962;50.084;8.794;2022-09-09T13:43:02;25.10;94.50
9847;DHT22;4962;50.084;8.794;2022-09-09T13:45:31;25.10;94.60
9847;DHT22;4962;50.084;8.794;2022-09-09T13:48:09;25.10;94.80
9847;DHT22;4962;50.084;8.794;2022-09-09T13:50:38;25.10;95.40
9847;DHT22;4962;50.084;8.794;2022-09-09T13:53:08;25.00;95.40
9847;DHT22;4962;50.084;8.794;2022-09-09T13:55:36;25.00;95.50
9847;DHT22;4962;50.084;8.794;2022-09-09T13:58:04;25.00;95.70
9847;DHT22;4962;50.084;8.794;2022-09-09T14:00:32;25.00;95.90
9847;DHT22;4962;50.084;8.794;2022-09-09T14:02:59;25.00;96.20
9847;DHT22;4962;50.084;8.794;2022-09-09T14:05:27;25.00;96.60
9847;DHT22;4962;50.084;8.794;2022-09-09T14:07:57;25.00;96.80
9847;DHT22;4962;50.084;8.794;2022-09-09T14:10:33;24.90;96.90
9847;DHT22;4962;50.084;8.794;2022-09-09T14:13:01;24.80;97.30
9847;DHT22;4962;50.084;8.794;2022-09-09T14:15:28;24.80;97.60
9847;DHT22;4962;50.084;8.794;2022-09-09T14:17:55;24.70;97.70
9847;DHT22;4962;50.084;8.794;2022-09-09T14:20:24;24.60;97.70
9847;DHT22;4962;50.084;8.794;2022-09-09T14:22:51;24.60;98.10
9847;DHT22;4962;50.084;8.794;2022-09-09T14:25:20;24.50;98.60
9847;DHT22;4962;50.084;8.794;2022-09-09T14:27:47;24.50;98.80
9847;DHT22;4962;50.084;8.794;2022-09-09T14:30:14;24.40;98.90
9847;DHT22;4962;50.084;8.794;2022-09-09T14:32:41;24.50;99.10
9847;DHT22;4962;50.084;8.794;2022-09-09T14:35:08;24.60;99.20
9847;DHT22;4962;50.084;8.794;2022-09-09T14:37:35;24.60;99.70
9847;DHT22;4962;50.084;8.794;2022-09-09T14:40:02;24.70;99.90
9847;DHT22;4962;50.084;8.794;2022-09-09T14:42:31;24.70;99.90
9847;DHT22;4962;50.084;8.794;2022-09-09T14:44:57;24.80;99.90
9847;DHT22;4962;50.084;8.794;2022-09-09T14:47:24;24.80;99.90
9847;DHT22;4962;50.084;8.794;2022-09-09T14:49:51;24.90;99.90
9847;DHT22;4962;50.084;8.794;2022-09-09T14:52:18;24.90;99.90
9847;DHT22;4962;50.084;8.794;2022-09-09T14:54:45;24.80;99.90
9847;DHT22;4962;50.084;8.794;2022-09-09T14:57:12;24.70;99.90
9847;DHT22;4962;50.084;8.794;2022-09-09T14:59:41;24.70;99.90
9847;DHT22;4962;50.084;8.794;2022-09-09T15:02:08;24.70;99.90
9847;DHT22;4962;50.084;8.794;2022-09-09T15:04:35;24.80;99.90
9847;DHT22;4962;50.084;8.794;2022-09-09T15:07:02;24.80;99.90
9847;DHT22;4962;50.084;8.794;2022-09-09T15:09:29;24.80;99.90
9847;DHT22;4962;50.084;8.794;2022-09-09T15:11:56;24.70;99.90
9847;DHT22;4962;50.084;8.794;2022-09-09T15:14:23;24.60;99.90
9847;DHT22;4962;50.084;8.794;2022-09-09T15:16:52;24.50;99.90
9847;DHT22;4962;50.084;8.794;2022-09-09T15:19:20;24.40;99.40
9847;DHT22;4962;50.084;8.794;2022-09-09T15:21:47;24.30;98.80
9847;DHT22;4962;50.084;8.794;2022-09-09T15:24:14;24.20;98.60
9847;DHT22;4962;50.084;8.794;2022-09-09T15:26:41;24.10;98.80
9847;DHT22;4962;50.084;8.794;2022-09-09T15:29:08;24.10;99.10
9847;DHT22;4962;50.084;8.794;2022-09-09T15:31:35;24.00;99.20
9847;DHT22;4962;50.084;8.794;2022-09-09T15:34:05;24.00;99.40
9847;DHT22;4962;50.084;8.794;2022-09-09T15:36:34;24.00;99.50
9847;DHT22;4962;50.084;8.794;2022-09-09T15:39:03;24.00;99.80
9847;DHT22;4962;50.084;8.794;2022-09-09T15:41:30;24.00;99.90
9847;DHT22;4962;50.084;8.794;2022-09-09T15:43:58;24.00;99.90
9847;DHT22;4962;50.084;8.794;2022-09-09T15:46:28;23.90;99.90
9847;DHT22;4962;50.084;8.794;2022-09-09T15:48:57;23.80;99.90
9847;DHT22;4962;50.084;8.794;2022-09-09T15:51:26;23.80;99.90
9847;DHT22;4962;50.084;8.794;2022-09-09T15:53:57;23.60;99.90
9847;DHT22;4962;50.084;8.794;2022-09-09T15:56:24;23.50;99.90
9847;DHT22;4962;50.084;8.794;2022-09-09T15:58:53;23.30;99.90
9847;DHT22;4962;50.084;8.794;2022-09-09T16:01:19;23.20;99.90
9847;DHT22;4962;50.084;8.794;2022-09-09T16:03:46;23.00;99.90
9847;DHT22;4962;50.084;8.794;2022-09-09T16:06:16;22.90;99.90
9847;DHT22;4962;50.084;8.794;2022-09-09T16:08:45;22.80;99.90
9847;DHT22;4962;50.084;8.794;2022-09-09T16:11:17;22.70;99.90
9847;DHT22;4962;50.084;8.794;2022-09-09T16:13:45;22.60;99.90
9847;DHT22;4962;50.084;8.794;2022-09-09T16:16:15;22.50;99.90
9847;DHT22;4962;50.084;8.794;2022-09-09T16:18:43;22.30;99.90
9847;DHT22;4962;50.084;8.794;2022-09-09T16:21:14;22.20;99.90
9847;DHT22;4962;50.084;8.794;2022-09-09T16:23:41;22.10;99.90
9847;DHT22;4962;50.084;8.794;2022-09-09T16:26:14;22.10;99.90
9847;DHT22;4962;50.084;8.794;2022-09-09T16:28:51;22.10;99.90